createdAt,value
2019-02-14T00:00:39.791Z,32.83
2019-02-14T00:03:09.187Z,30.68
2019-02-14T00:05:38.611Z,39.93
2019-02-14T00:08:08.038Z,29.40
2019-02-14T00:10:37.417Z,30.13
2019-02-14T00:13:06.824Z,34.20
2019-02-14T00:15:36.241Z,28.40
2019-02-14T00:18:05.660Z,31.07
2019-02-14T00:20:35.403Z,26.45
2019-02-14T00:23:06.736Z,32.80
2019-02-14T00:25:36.682Z,33.25
2019-02-14T00:28:06.042Z,31.15
2019-02-14T00:30:35.468Z,31.77
2019-02-14T00:33:05.732Z,30.93
2019-02-14T00:35:35.291Z,29.65
2019-02-14T00:38:04.704Z,29.00
2019-02-14T00:40:34.104Z,39.08
2019-02-14T00:43:03.498Z,31.70
2019-02-14T00:45:34.826Z,29.60
2019-02-14T00:48:04.335Z,30.47
2019-02-14T00:50:33.885Z,29.20
2019-02-14T00:53:03.312Z,33.93
2019-02-14T00:55:32.713Z,29.73
2019-02-14T00:58:02.112Z,27.90
2019-02-14T01:00:31.802Z,33.45
2019-02-14T01:03:01.162Z,36.45
2019-02-14T01:05:33.587Z,36.53
2019-02-14T01:08:02.041Z,29.13
2019-02-14T01:10:31.433Z,31.87
2019-02-14T01:13:00.833Z,38.07
2019-02-14T01:15:30.669Z,33.42
2019-02-14T01:18:00.063Z,33.13
2019-02-14T01:20:29.449Z,31.07
2019-02-14T01:22:58.892Z,36.13
2019-02-14T01:25:28.285Z,39.03
2019-02-14T01:27:58.206Z,37.57
2019-02-14T01:30:27.669Z,36.95
2019-02-14T01:32:57.074Z,35.20
2019-02-14T01:35:26.492Z,39.00
2019-02-14T01:37:56.364Z,33.20
2019-02-14T01:40:28.575Z,38.00
2019-02-14T01:42:57.927Z,35.77
2019-02-14T01:45:29.488Z,36.23
2019-02-14T01:47:58.881Z,34.57
2019-02-14T01:50:28.284Z,35.20
2019-02-14T01:53:00.714Z,35.77
2019-02-14T01:55:30.569Z,41.98
2019-02-14T01:58:01.985Z,35.70
2019-02-14T02:00:34.260Z,41.70
2019-02-14T02:03:03.840Z,30.67
2019-02-14T02:05:33.588Z,33.60
2019-02-14T02:08:03.857Z,34.97
2019-02-14T02:10:33.238Z,38.17
2019-02-14T02:13:03.730Z,34.03
2019-02-14T02:15:33.140Z,32.35
2019-02-14T02:18:03.365Z,33.50
2019-02-14T02:20:33.563Z,32.73
2019-02-14T02:23:04.343Z,32.20
2019-02-14T02:25:33.726Z,29.30
2019-02-14T02:28:03.125Z,32.75
2019-02-14T02:30:33.523Z,29.55
2019-02-14T02:33:03.364Z,26.77
2019-02-14T02:35:37.117Z,27.32
2019-02-14T02:38:08.614Z,31.67
2019-02-14T02:40:38.141Z,25.33
2019-02-14T02:43:08.097Z,29.10
2019-02-14T02:45:41.440Z,31.63
2019-02-14T02:48:10.794Z,32.10
2019-02-14T02:50:40.165Z,30.37
2019-02-14T02:53:10.342Z,38.67
2019-02-14T02:55:39.713Z,35.70
2019-02-14T02:58:09.785Z,34.13
2019-02-14T03:00:39.357Z,33.67
2019-02-14T03:03:09.182Z,37.03
2019-02-14T03:05:38.520Z,36.23
2019-02-14T03:08:07.993Z,31.70
2019-02-14T03:10:37.541Z,36.73
2019-02-14T03:13:06.924Z,36.93
2019-02-14T03:15:36.826Z,31.00
2019-02-14T03:18:06.202Z,32.33
2019-02-14T03:20:36.253Z,36.53
2019-02-14T03:23:05.575Z,36.80
2019-02-14T03:25:35.752Z,38.25
2019-02-14T03:28:05.791Z,36.40
2019-02-14T03:30:35.204Z,35.20
2019-02-14T03:33:04.577Z,35.07
2019-02-14T03:35:36.361Z,36.03
2019-02-14T03:38:08.989Z,40.00
2019-02-14T03:40:38.400Z,41.83
2019-02-14T03:43:09.719Z,30.77
2019-02-14T03:45:38.967Z,33.63
2019-02-14T03:48:08.372Z,28.93
2019-02-14T03:50:37.823Z,31.77
2019-02-14T03:53:08.350Z,31.95
2019-02-14T03:55:38.762Z,39.40
2019-02-14T03:58:08.158Z,44.07
2019-02-14T04:00:38.335Z,43.23
2019-02-14T04:03:08.663Z,39.03
2019-02-14T04:05:38.299Z,35.17
2019-02-14T04:08:08.334Z,33.60
2019-02-14T04:10:37.709Z,31.97
2019-02-14T04:13:08.218Z,32.98
2019-02-14T04:15:38.030Z,33.03
2019-02-14T04:18:07.457Z,33.77
2019-02-14T04:20:38.218Z,27.20
2019-02-14T04:23:10.829Z,28.30
2019-02-14T04:25:40.533Z,26.80
2019-02-14T04:28:10.818Z,25.60
2019-02-14T04:30:40.572Z,27.98
2019-02-14T04:33:11.582Z,25.67
2019-02-14T04:35:40.960Z,29.47
2019-02-14T04:38:10.392Z,30.70
2019-02-14T04:40:39.877Z,32.60
2019-02-14T04:43:09.868Z,30.00
2019-02-14T04:45:40.001Z,25.57
2019-02-14T04:48:12.791Z,23.40
2019-02-14T04:50:42.133Z,23.95
2019-02-14T04:53:12.409Z,23.90
2019-02-14T04:55:43.047Z,22.13
2019-02-14T04:58:12.564Z,55.70
2019-02-14T05:00:43.099Z,49.70
2019-02-14T05:03:13.828Z,179.60
2019-02-14T05:05:43.824Z,175.03
2019-02-14T05:08:13.661Z,205.03
2019-02-14T05:10:43.663Z,133.22
2019-02-14T05:13:13.037Z,55.30
2019-02-14T05:15:42.445Z,28.80
2019-02-14T05:18:11.848Z,25.40
2019-02-14T05:20:41.249Z,23.50
2019-02-14T05:23:10.645Z,23.00
2019-02-14T05:25:40.377Z,28.05
2019-02-14T05:28:09.841Z,31.10
2019-02-14T05:30:42.582Z,32.43
2019-02-14T05:33:11.923Z,31.53
2019-02-14T05:35:41.773Z,31.17
2019-02-14T05:38:13.485Z,29.92
2019-02-14T05:40:42.936Z,35.60
2019-02-14T05:43:12.267Z,35.03
2019-02-14T05:45:42.886Z,41.50
2019-02-14T05:48:13.670Z,37.03
2019-02-14T05:50:43.792Z,40.70
2019-02-14T05:53:13.216Z,41.20
2019-02-14T05:55:42.622Z,33.60
2019-02-14T05:58:12.333Z,35.83
2019-02-14T06:00:41.789Z,31.43
2019-02-14T06:03:11.892Z,32.30
2019-02-14T06:05:41.634Z,34.73
2019-02-14T06:08:11.684Z,31.95
2019-02-14T06:10:41.401Z,35.28
2019-02-14T06:13:11.634Z,37.07
2019-02-14T06:15:49.571Z,38.30
2019-02-14T06:18:18.949Z,66.13
2019-02-14T06:20:48.809Z,46.80
2019-02-14T06:23:21.371Z,39.42
2019-02-14T06:25:51.326Z,33.53
2019-02-14T06:28:21.296Z,40.50
2019-02-14T06:30:51.093Z,36.30
2019-02-14T06:33:24.035Z,41.60
2019-02-14T06:35:54.338Z,32.73
2019-02-14T06:38:25.336Z,42.20
2019-02-14T06:40:55.865Z,63.53
2019-02-14T06:43:25.177Z,46.63
2019-02-14T06:45:58.241Z,40.60
2019-02-14T06:48:28.602Z,40.80
2019-02-14T06:50:57.939Z,37.30
2019-02-14T06:53:31.527Z,34.23
2019-02-14T06:56:02.018Z,29.70
2019-02-14T06:58:39.130Z,36.03
2019-02-14T07:01:08.897Z,48.80
2019-02-14T07:03:38.943Z,37.90
2019-02-14T07:06:08.346Z,36.03
2019-02-14T07:08:38.073Z,36.67
2019-02-14T07:11:07.916Z,36.53
2019-02-14T07:13:38.315Z,36.50
2019-02-14T07:16:12.888Z,42.60
2019-02-14T07:18:43.050Z,31.40
2019-02-14T07:21:13.868Z,42.20
2019-02-14T07:23:44.242Z,42.60
2019-02-14T07:26:14.751Z,35.17
2019-02-14T07:28:44.239Z,27.00
2019-02-14T07:31:19.662Z,30.20
2019-02-14T07:33:51.961Z,34.60
2019-02-14T07:36:21.545Z,35.35
2019-02-14T07:38:51.646Z,31.20
2019-02-14T07:41:23.849Z,33.55
2019-02-14T07:43:53.220Z,35.10
2019-02-14T07:46:23.092Z,37.77
2019-02-14T07:48:52.509Z,35.60
2019-02-14T07:51:22.934Z,38.00
2019-02-14T07:53:52.697Z,33.03
2019-02-14T07:56:22.748Z,38.58
2019-02-14T07:58:53.323Z,39.05
2019-02-14T08:01:23.758Z,42.50
2019-02-14T08:03:54.248Z,36.10
2019-02-14T08:06:24.021Z,39.30
2019-02-14T08:08:53.878Z,41.33
2019-02-14T08:11:24.343Z,31.47
2019-02-14T08:13:54.316Z,35.30
2019-02-14T08:16:25.718Z,30.57
2019-02-14T08:18:56.255Z,33.25
2019-02-14T08:21:29.126Z,27.07
2019-02-14T08:23:59.773Z,30.13
2019-02-14T08:26:34.194Z,24.05
2019-02-14T08:29:04.001Z,22.87
2019-02-14T08:31:39.742Z,21.07
2019-02-14T08:34:11.022Z,23.80
2019-02-14T08:36:41.007Z,18.97
2019-02-14T08:39:11.534Z,20.40
2019-02-14T08:41:41.970Z,19.60
2019-02-14T08:44:11.507Z,17.60
2019-02-14T08:46:41.891Z,21.60
2019-02-14T08:49:13.818Z,18.67
2019-02-14T08:51:47.592Z,21.10
2019-02-14T08:54:17.859Z,12.93
2019-02-14T08:56:47.349Z,16.77
2019-02-14T08:59:18.824Z,10.55
2019-02-14T09:01:48.321Z,8.40
2019-02-14T09:04:19.226Z,11.37
2019-02-14T09:06:48.934Z,10.50
2019-02-14T09:09:18.529Z,10.90
2019-02-14T09:11:52.274Z,13.07
2019-02-14T09:14:21.812Z,14.28
2019-02-14T09:16:54.983Z,10.53
2019-02-14T09:19:25.368Z,8.70
2019-02-14T09:21:55.501Z,17.63
2019-02-14T09:24:26.061Z,11.30
2019-02-14T09:26:57.180Z,10.13
2019-02-14T09:29:28.035Z,15.53
2019-02-14T09:31:58.163Z,16.53
2019-02-14T09:34:29.269Z,13.67
2019-02-14T09:36:58.682Z,14.43
2019-02-14T09:39:30.538Z,11.67
2019-02-14T09:41:59.913Z,17.57
2019-02-14T09:44:31.789Z,13.87
2019-02-14T09:47:01.208Z,15.43
2019-02-14T09:49:30.601Z,15.23
2019-02-14T09:52:00.090Z,20.67
2019-02-14T09:54:29.521Z,15.93
2019-02-14T09:56:58.934Z,18.00
2019-02-14T09:59:29.657Z,14.50
2019-02-14T10:02:00.169Z,18.80
2019-02-14T10:04:29.557Z,14.07
2019-02-14T10:07:01.878Z,17.93
2019-02-14T10:09:32.440Z,17.73
2019-02-14T10:12:04.414Z,16.20
2019-02-14T10:14:34.184Z,16.57
2019-02-14T10:17:04.123Z,18.07
2019-02-14T10:19:33.651Z,16.13
2019-02-14T10:22:03.640Z,11.10
2019-02-14T10:24:33.015Z,15.73
2019-02-14T10:27:04.341Z,23.23
2019-02-14T10:29:33.509Z,14.27
2019-02-14T10:32:03.632Z,22.13
2019-02-14T10:34:33.611Z,24.57
2019-02-14T10:37:06.802Z,18.50
2019-02-14T10:39:37.241Z,16.10
2019-02-14T10:42:06.632Z,19.10
2019-02-14T10:44:36.986Z,22.57
2019-02-14T10:47:07.561Z,22.93
2019-02-14T10:49:37.739Z,20.17
2019-02-14T10:52:07.127Z,15.30
2019-02-14T10:54:37.149Z,28.43
2019-02-14T10:57:06.525Z,19.47
2019-02-14T10:59:36.001Z,19.47
2019-02-14T11:02:10.397Z,33.37
2019-02-14T11:04:40.247Z,19.87
2019-02-14T11:07:11.299Z,21.00
2019-02-14T11:09:40.713Z,20.03
2019-02-14T11:12:10.097Z,32.55
2019-02-14T11:14:40.295Z,23.03
2019-02-14T11:17:10.717Z,22.87
2019-02-14T11:19:40.031Z,23.67
2019-02-14T11:22:09.438Z,23.10
2019-02-14T11:24:38.913Z,22.87
2019-02-14T11:27:08.684Z,22.20
2019-02-14T11:29:38.087Z,22.13
2019-02-14T11:32:07.684Z,22.37
2019-02-14T11:34:37.061Z,21.15
2019-02-14T11:37:06.585Z,24.70
2019-02-14T11:39:36.420Z,24.67
2019-02-14T11:42:05.814Z,29.17
2019-02-14T11:44:39.810Z,22.93
2019-02-14T11:47:07.800Z,23.97
2019-02-14T11:49:37.465Z,24.23
2019-02-14T11:52:06.935Z,25.90
2019-02-14T11:54:39.449Z,26.80
2019-02-14T11:57:09.175Z,27.63
2019-02-14T11:59:40.537Z,25.70
2019-02-14T12:02:10.017Z,40.93
2019-02-14T12:04:39.598Z,29.20
2019-02-14T12:07:09.077Z,23.97
2019-02-14T12:09:38.861Z,29.00
2019-02-14T12:12:08.350Z,21.97
2019-02-14T12:14:37.874Z,26.53
2019-02-14T12:17:07.633Z,24.87
2019-02-14T12:19:39.497Z,24.57
2019-02-14T12:22:10.918Z,21.83
2019-02-14T12:24:41.333Z,19.10
2019-02-14T12:27:12.992Z,21.77
2019-02-14T12:29:42.305Z,23.53
2019-02-14T12:32:13.247Z,23.13
2019-02-14T12:34:44.811Z,24.10
2019-02-14T12:37:28.904Z,22.17
2019-02-14T12:39:46.830Z,19.77
2019-02-14T12:42:17.171Z,17.42
2019-02-14T12:44:47.669Z,24.47
2019-02-14T12:47:19.009Z,29.60
2019-02-14T12:49:52.295Z,24.70
2019-02-14T12:52:22.120Z,19.37
2019-02-14T12:54:51.703Z,20.03
2019-02-14T12:57:24.555Z,20.07
2019-02-14T12:59:58.144Z,26.90
2019-02-14T13:02:28.818Z,22.17
2019-02-14T13:04:58.268Z,23.70
2019-02-14T13:07:30.450Z,20.60
2019-02-14T13:09:59.860Z,31.27
2019-02-14T13:12:29.251Z,18.13
2019-02-14T13:14:58.608Z,17.20
2019-02-14T13:17:28.125Z,20.82
2019-02-14T13:19:57.506Z,18.43
2019-02-14T13:22:27.895Z,16.42
2019-02-14T13:24:58.870Z,21.53
2019-02-14T13:27:28.421Z,18.43
2019-02-14T13:29:57.955Z,26.33
2019-02-14T13:32:29.018Z,18.02
2019-02-14T13:34:58.445Z,19.73
2019-02-14T13:37:28.622Z,18.73
2019-02-14T13:39:58.858Z,23.90
2019-02-14T13:42:29.157Z,17.10
2019-02-14T13:44:58.691Z,17.03
2019-02-14T13:47:28.635Z,17.37
2019-02-14T13:49:58.016Z,17.05
2019-02-14T13:52:27.551Z,19.85
2019-02-14T13:54:56.954Z,22.03
2019-02-14T13:57:26.397Z,24.97
2019-02-14T13:59:55.772Z,17.53
2019-02-14T14:02:27.126Z,16.97
2019-02-14T14:04:56.213Z,18.83
2019-02-14T14:07:39.919Z,24.10
2019-02-14T14:10:03.388Z,18.27
2019-02-14T14:12:36.092Z,26.07
2019-02-14T14:15:06.603Z,20.70
2019-02-14T14:17:37.478Z,21.00
2019-02-14T14:20:07.078Z,17.67
2019-02-14T14:22:36.830Z,19.23
2019-02-14T14:25:08.058Z,19.23
2019-02-14T14:27:37.453Z,16.10
2019-02-14T14:30:08.769Z,19.00
2019-02-14T14:32:38.720Z,21.95
2019-02-14T14:35:08.341Z,16.23
2019-02-14T14:37:38.302Z,21.13
2019-02-14T14:40:09.377Z,24.97
2019-02-14T14:43:04.985Z,18.03
2019-02-14T14:46:04.446Z,18.90
2019-02-14T14:48:37.841Z,19.73
2019-02-14T14:51:07.294Z,17.30
2019-02-14T14:53:37.584Z,16.07
2019-02-14T14:56:11.808Z,16.13
2019-02-14T14:58:41.269Z,18.27
2019-02-14T15:01:11.060Z,23.23
2019-02-14T15:03:41.841Z,22.47
2019-02-14T15:06:11.332Z,18.07
2019-02-14T15:08:40.766Z,16.73
2019-02-14T15:11:11.668Z,23.73
2019-02-14T15:13:41.252Z,16.73
2019-02-14T15:16:10.670Z,14.90
2019-02-14T15:18:40.078Z,15.30
2019-02-14T15:21:09.560Z,21.03
2019-02-14T15:23:39.204Z,14.80
2019-02-14T15:26:08.621Z,17.97
2019-02-14T15:28:38.229Z,20.00
2019-02-14T15:31:08.276Z,15.10
2019-02-14T15:33:38.444Z,15.13
2019-02-14T15:36:10.585Z,17.77
2019-02-14T15:38:41.177Z,19.53
2019-02-14T15:41:10.884Z,15.10
2019-02-14T15:43:40.536Z,15.33
2019-02-14T15:46:13.723Z,20.03
2019-02-14T15:48:43.604Z,16.30
2019-02-14T15:51:15.792Z,19.43
2019-02-14T15:53:46.258Z,19.55
2019-02-14T15:56:15.813Z,19.23
2019-02-14T15:58:45.295Z,20.20
2019-02-14T16:01:16.589Z,19.55
2019-02-14T16:03:50.611Z,21.97
2019-02-14T16:06:22.446Z,22.20
2019-02-14T16:08:52.025Z,28.00
2019-02-14T16:11:21.496Z,37.03
2019-02-14T16:13:52.849Z,25.17
2019-02-14T16:16:25.686Z,24.70
2019-02-14T16:18:55.333Z,22.77
2019-02-14T16:21:24.937Z,38.70
2019-02-14T16:23:57.253Z,24.20
2019-02-14T16:26:26.320Z,36.80
2019-02-14T16:28:56.697Z,27.43
2019-02-14T16:31:27.405Z,58.90
2019-02-14T16:33:56.953Z,27.13
2019-02-14T16:36:27.047Z,30.90
2019-02-14T16:38:58.700Z,34.00
2019-02-14T16:41:30.072Z,31.73
2019-02-14T16:43:59.461Z,37.17
2019-02-14T16:46:29.004Z,40.13
2019-02-14T16:48:58.944Z,44.63
2019-02-14T16:51:34.164Z,40.90
2019-02-14T16:54:04.174Z,73.30
2019-02-14T16:56:34.059Z,42.80
2019-02-14T16:59:03.698Z,40.23
2019-02-14T17:01:33.893Z,39.30
2019-02-14T17:04:03.428Z,35.73
2019-02-14T17:06:32.893Z,46.83
2019-02-14T17:09:03.028Z,33.53
2019-02-14T17:11:33.308Z,42.73
2019-02-14T17:14:04.149Z,38.93
2019-02-14T17:16:34.212Z,42.47
2019-02-14T17:19:04.460Z,46.50
2019-02-14T17:21:33.815Z,51.20
2019-02-14T17:24:06.544Z,50.30
2019-02-14T17:26:36.883Z,49.77
2019-02-14T17:29:06.788Z,48.20
2019-02-14T17:31:40.339Z,46.47
2019-02-14T17:34:09.750Z,42.07
2019-02-14T17:36:41.865Z,33.53
2019-02-14T17:39:11.823Z,47.27
2019-02-14T17:41:42.789Z,50.57
2019-02-14T17:44:13.461Z,49.10
2019-02-14T17:46:43.494Z,39.43
2019-02-14T17:49:12.928Z,61.57
2019-02-14T17:51:42.339Z,40.90
2019-02-14T17:54:13.381Z,46.77
2019-02-14T17:56:42.737Z,48.53
2019-02-14T17:59:12.133Z,37.03
2019-02-14T18:01:41.640Z,33.13
2019-02-14T18:04:11.161Z,43.10
2019-02-14T18:06:41.520Z,40.90
2019-02-14T18:09:11.310Z,42.23
2019-02-14T18:11:40.796Z,65.00
2019-02-14T18:14:10.236Z,51.30
2019-02-14T18:16:39.681Z,46.40
2019-02-14T18:19:09.947Z,44.67
2019-02-14T18:21:41.779Z,47.13
2019-02-14T18:24:13.476Z,38.40
2019-02-14T18:26:44.376Z,47.17
2019-02-14T18:29:14.807Z,44.03
2019-02-14T18:31:44.173Z,39.48
2019-02-14T18:34:14.806Z,43.97
2019-02-14T18:36:45.958Z,52.60
2019-02-14T18:39:21.204Z,39.03
2019-02-14T18:41:50.889Z,43.27
2019-02-14T18:44:20.524Z,38.98
2019-02-14T18:46:53.316Z,41.53
2019-02-14T18:49:26.187Z,63.37
2019-02-14T18:51:56.031Z,59.50
2019-02-14T18:54:26.471Z,57.13
2019-02-14T18:56:56.437Z,47.47
2019-02-14T18:59:25.866Z,55.93
2019-02-14T19:01:56.771Z,59.63
2019-02-14T19:04:27.711Z,63.83
2019-02-14T19:06:59.467Z,57.53
2019-02-14T19:09:30.317Z,50.87
2019-02-14T19:12:00.028Z,50.53
2019-02-14T19:14:29.422Z,48.80
2019-02-14T19:16:58.971Z,50.43
2019-02-14T19:19:30.066Z,46.00
2019-02-14T19:21:59.656Z,40.60
2019-02-14T19:24:30.258Z,43.55
2019-02-14T19:27:01.789Z,41.53
2019-02-14T19:29:32.617Z,45.90
2019-02-14T19:32:03.073Z,47.73
2019-02-14T19:34:32.531Z,39.40
2019-02-14T19:37:01.921Z,43.57
2019-02-14T19:39:31.607Z,41.43
2019-02-14T19:42:05.757Z,48.03
2019-02-14T19:44:38.930Z,49.53
2019-02-14T19:47:08.956Z,61.23
2019-02-14T19:49:41.196Z,49.90
2019-02-14T19:52:12.432Z,48.40
2019-02-14T19:54:41.890Z,49.83
2019-02-14T19:57:12.555Z,47.50
2019-02-14T19:59:42.186Z,52.47
2019-02-14T20:02:12.436Z,40.63
2019-02-14T20:04:42.110Z,36.20
2019-02-14T20:07:11.572Z,37.27
2019-02-14T20:09:41.758Z,36.10
2019-02-14T20:12:11.201Z,38.28
2019-02-14T20:14:40.907Z,41.50
2019-02-14T20:17:12.080Z,37.90
2019-02-14T20:19:41.646Z,46.77
2019-02-14T20:22:13.627Z,37.70
2019-02-14T20:24:43.415Z,35.50
2019-02-14T20:27:15.964Z,35.90
2019-02-14T20:29:47.222Z,40.33
2019-02-14T20:32:21.309Z,35.20
2019-02-14T20:34:52.226Z,35.90
2019-02-14T20:37:22.074Z,38.00
2019-02-14T20:39:52.048Z,36.90
2019-02-14T20:42:23.372Z,38.92
2019-02-14T20:44:53.261Z,43.40
2019-02-14T20:47:26.415Z,48.40
2019-02-14T20:49:55.804Z,49.70
2019-02-14T20:52:25.403Z,56.77
2019-02-14T20:54:55.835Z,52.00
2019-02-14T20:57:26.423Z,39.40
2019-02-14T20:59:55.827Z,36.73
2019-02-14T21:02:29.451Z,28.62
2019-02-14T21:05:00.587Z,35.23
2019-02-14T21:07:29.985Z,34.38
2019-02-14T21:10:00.355Z,38.67
2019-02-14T21:12:29.770Z,45.67
2019-02-14T21:14:59.548Z,53.48
2019-02-14T21:17:29.645Z,61.23
2019-02-14T21:19:59.246Z,47.83
2019-02-14T21:22:29.656Z,35.98
2019-02-14T21:24:59.325Z,42.27
2019-02-14T21:27:28.841Z,32.65
2019-02-14T21:29:58.281Z,38.50
2019-02-14T21:32:28.394Z,40.10
2019-02-14T21:34:57.934Z,33.60
2019-02-14T21:37:27.691Z,32.38
2019-02-14T21:39:57.242Z,34.08
2019-02-14T21:42:29.215Z,33.73
2019-02-14T21:44:57.673Z,36.10
2019-02-14T21:47:27.086Z,39.23
2019-02-14T21:49:57.209Z,30.50
2019-02-14T21:52:33.649Z,37.78
2019-02-14T21:55:06.547Z,34.50
2019-02-14T21:57:35.954Z,38.13
2019-02-14T22:00:09.947Z,47.08
2019-02-14T22:02:39.367Z,35.90
2019-02-14T22:05:09.435Z,37.47
2019-02-14T22:07:39.200Z,35.53
2019-02-14T22:10:10.688Z,40.50
2019-02-14T22:12:42.120Z,41.20
2019-02-14T22:15:16.001Z,35.52
2019-02-14T22:17:46.507Z,39.50
2019-02-14T22:20:18.917Z,37.50
2019-02-14T22:22:50.668Z,39.83
2019-02-14T22:25:20.623Z,43.48
2019-02-14T22:27:53.094Z,38.02
2019-02-14T22:30:22.565Z,42.80
2019-02-14T22:32:52.225Z,48.43
2019-02-14T22:35:25.025Z,40.05
2019-02-14T22:37:54.442Z,37.17
2019-02-14T22:40:25.687Z,41.93
2019-02-14T22:42:56.047Z,38.67
2019-02-14T22:45:26.219Z,41.30
2019-02-14T22:47:55.744Z,32.93
2019-02-14T22:50:26.105Z,47.00
2019-02-14T22:52:57.503Z,47.13
2019-02-14T22:55:26.904Z,41.77
2019-02-14T22:58:00.005Z,39.30
2019-02-14T23:00:43.198Z,43.00
2019-02-14T23:03:12.885Z,38.90
2019-02-14T23:05:42.692Z,43.33
2019-02-14T23:08:12.080Z,42.78
2019-02-14T23:10:41.869Z,41.70
2019-02-14T23:13:11.776Z,40.90
2019-02-14T23:15:41.202Z,39.90
2019-02-14T23:18:10.877Z,35.33
2019-02-14T23:20:40.422Z,39.40
2019-02-14T23:23:09.925Z,31.43
2019-02-14T23:25:39.697Z,32.80
2019-02-14T23:28:09.695Z,37.85
2019-02-14T23:30:39.057Z,39.00
2019-02-14T23:33:08.707Z,42.17
2019-02-14T23:35:38.085Z,38.70
2019-02-14T23:38:07.461Z,41.13
2019-02-14T23:40:36.993Z,45.37
2019-02-14T23:43:07.351Z,42.83
2019-02-14T23:45:36.985Z,44.47
2019-02-14T23:48:06.954Z,35.93
2019-02-14T23:50:36.409Z,36.70
2019-02-14T23:53:05.815Z,37.30
2019-02-14T23:55:37.616Z,36.25
2019-02-14T23:58:07.990Z,42.57
